Time,TemperatureF,DewpointF,PressureIn,WindDirection,WindDirectionDegrees,WindSpeedMPH,WindSpeedGustMPH,Humidity,HourlyPrecipIn,Conditions,Clouds,dailyrainin,SoftwareType,DateUTC
2013-03-19 00:00:00,31.3,29.2,29.27,WNW,292,0.0,0.0,92,0.00,-SN,,0.00,WeatherDisplay:10.37,2013-03-18 23:00:00,
2013-03-19 00:10:00,31.3,29.2,29.27,WNW,292,0.0,0.0,92,0.00,-SN,,0.00,WeatherDisplay:10.37,2013-03-18 23:10:00,
2013-03-19 00:20:00,31.3,29.2,29.27,WNW,292,0.0,0.0,92,0.00,-SN,,0.00,WeatherDisplay:10.37,2013-03-18 23:20:00,
2013-03-19 00:40:00,31.3,29.2,29.28,WNW,292,0.0,0.0,92,0.00,-SN,,0.00,WeatherDisplay:10.37,2013-03-18 23:40:00,
2013-03-19 00:50:00,31.3,29.2,29.27,WNW,292,0.0,0.0,92,0.00,-SN,,0.00,WeatherDisplay:10.37,2013-03-18 23:50:00,
2013-03-19 01:00:00,31.3,29.2,29.28,WNW,292,0.0,0.0,92,0.00,OVC,,0.00,WeatherDisplay:10.37,2013-03-19 00:00:00,
2013-03-19 01:10:00,31.3,29.2,29.27,WNW,298,0.0,0.0,92,0.00,OVC,,0.00,WeatherDisplay:10.37,2013-03-19 00:10:00,
2013-03-19 01:21:00,31.3,29.2,29.27,SW,216,0.0,0.0,92,0.00,OVC,,0.00,WeatherDisplay:10.37,2013-03-19 00:21:00,
2013-03-19 01:30:00,31.1,29.0,29.27,SW,225,0.0,0.0,92,0.00,OVC,,0.00,WeatherDisplay:10.37,2013-03-19 00:30:00,
2013-03-19 01:40:00,31.1,29.0,29.27,SW,231,0.0,0.0,92,0.00,OVC,,0.00,WeatherDisplay:10.37,2013-03-19 00:40:00,
2013-03-19 01:50:00,31.1,29.0,29.27,WNW,292,0.0,0.0,92,0.00,OVC,,0.00,WeatherDisplay:10.37,2013-03-19 00:50:00,
2013-03-19 02:00:00,31.1,29.0,29.27,SW,215,0.0,0.0,92,0.00,OVC,,0.00,WeatherDisplay:10.37,2013-03-19 01:00:00,
2013-03-19 02:11:00,31.1,29.0,29.27,SE,135,0.0,0.0,92,0.00,OVC,,0.00,WeatherDisplay:10.37,2013-03-19 01:11:00,
2013-03-19 02:20:00,31.1,29.0,29.26,SE,135,0.0,0.0,92,0.00,-SN,,0.00,WeatherDisplay:10.37,2013-03-19 01:20:00,
2013-03-19 02:30:00,31.1,29.0,29.26,SE,132,0.0,0.0,92,0.00,-SN,,0.00,WeatherDisplay:10.37,2013-03-19 01:30:00,
2013-03-19 02:40:00,30.9,28.9,29.26,NNW,338,0.0,0.0,92,0.00,-SN,,0.00,WeatherDisplay:10.37,2013-03-19 01:40:00,
2013-03-19 02:50:00,30.9,28.9,29.27,NW,324,1.0,1.0,92,0.00,-SN,,0.00,WeatherDisplay:10.37,2013-03-19 01:50:00,
2013-03-19 03:00:00,30.9,28.9,29.27,WNW,301,0.0,1.0,92,0.00,-SN,,0.00,WeatherDisplay:10.37,2013-03-19 02:00:00,
2013-03-19 03:10:00,30.9,28.9,29.27,NW,314,0.0,0.0,92,0.00,-SN,,0.00,WeatherDisplay:10.37,2013-03-19 02:10:00,
2013-03-19 03:20:00,30.9,29.1,29.27,WNW,292,1.0,2.0,93,0.00,-SN,,0.00,WeatherDisplay:10.37,2013-03-19 02:20:00,
2013-03-19 03:30:00,30.9,29.1,29.28,WNW,292,0.0,2.0,93,0.00,-SN,,0.00,WeatherDisplay:10.37,2013-03-19 02:30:00,
2013-03-19 03:40:00,30.9,29.1,29.28,NW,308,1.0,1.0,93,0.00,-SN,,0.00,WeatherDisplay:10.37,2013-03-19 02:40:00,
2013-03-19 03:50:00,30.9,29.1,29.28,WNW,298,0.0,1.0,93,0.00,-SN,,0.00,WeatherDisplay:10.37,2013-03-19 02:50:00,
2013-03-19 04:00:00,30.9,29.1,29.28,East,90,0.0,0.0,93,0.00,-SN,,0.00,WeatherDisplay:10.37,2013-03-19 03:00:00,
2013-03-19 04:10:00,30.9,29.1,29.28,East,90,0.0,0.0,93,0.00,-SN,,0.00,WeatherDisplay:10.37,2013-03-19 03:10:00,
2013-03-19 04:20:00,30.9,29.1,29.29,East,90,0.0,2.0,93,0.00,-SN,,0.00,WeatherDisplay:10.37,2013-03-19 03:20:00,
2013-03-19 04:30:00,30.9,29.1,29.29,East,90,0.0,1.0,93,0.00,-SN,,0.00,WeatherDisplay:10.37,2013-03-19 03:30:00,
2013-03-19 04:41:00,31.1,29.3,29.29,East,87,0.0,0.0,93,0.00,-SN,,0.00,WeatherDisplay:10.37,2013-03-19 03:41:00,
2013-03-19 04:51:00,31.1,29.3,29.30,WNW,290,0.0,2.0,93,0.00,-SN,,0.00,WeatherDisplay:10.37,2013-03-19 03:51:00,
2013-03-19 05:10:00,30.7,28.7,29.31,NW,309,1.0,4.0,92,0.00,-SN,,0.00,WeatherDisplay:10.37,2013-03-19 04:10:00,
2013-03-19 05:21:00,30.7,28.7,29.31,NW,310,0.0,4.0,92,0.00,-SN,,0.00,WeatherDisplay:10.37,2013-03-19 04:21:00,
2013-03-19 05:30:00,30.7,28.7,29.31,WNW,298,2.0,2.0,92,0.00,-SN,,0.00,WeatherDisplay:10.37,2013-03-19 04:30:00,
2013-03-19 05:40:00,30.7,28.7,29.32,WNW,292,0.0,2.0,92,0.00,-SN,,0.00,WeatherDisplay:10.37,2013-03-19 04:40:00,
2013-03-19 05:50:00,30.6,28.5,29.32,WSW,251,1.0,1.0,92,0.00,-SN,,0.00,WeatherDisplay:10.37,2013-03-19 04:50:00,
2013-03-19 06:00:00,30.4,28.3,29.33,NW,307,0.0,1.0,92,0.00,-SN,,0.00,WeatherDisplay:10.37,2013-03-19 05:00:00,
2013-03-19 06:10:00,30.2,28.2,29.33,WNW,303,0.0,0.0,92,0.00,-SN,,0.00,WeatherDisplay:10.37,2013-03-19 05:10:00,
2013-03-19 06:20:00,30.0,28.0,29.34,NW,314,0.0,4.0,92,0.00,-SN,,0.00,WeatherDisplay:10.37,2013-03-19 05:20:00,
2013-03-19 06:30:00,29.8,27.8,29.35,NW,313,3.0,3.0,92,0.00,-SN,,0.00,WeatherDisplay:10.37,2013-03-19 05:30:00,
2013-03-19 06:40:00,29.8,27.8,29.35,NW,314,0.0,5.0,92,0.00,-SN,,0.00,WeatherDisplay:10.37,2013-03-19 05:40:00,
2013-03-19 06:50:00,30.0,28.0,29.36,WNW,287,0.0,4.0,92,0.00,-SN,,0.00,WeatherDisplay:10.37,2013-03-19 05:50:00,
2013-03-19 07:00:00,30.0,27.7,29.36,WNW,285,0.0,2.0,91,0.00,-SN,,0.00,WeatherDisplay:10.37,2013-03-19 06:00:00,
2013-03-19 07:10:00,30.0,27.7,29.36,WNW,301,2.0,2.0,91,0.00,-SN,,0.00,WeatherDisplay:10.37,2013-03-19 06:10:00,
2013-03-19 07:20:00,30.2,27.9,29.36,WNW,294,0.0,2.0,91,0.00,-SN,,0.00,WeatherDisplay:10.37,2013-03-19 06:20:00,
2013-03-19 07:30:00,30.4,28.1,29.37,SE,135,2.0,2.0,91,0.00,-SN,,0.00,WeatherDisplay:10.37,2013-03-19 06:30:00,
2013-03-19 07:40:00,30.6,28.2,29.37,WNW,292,0.0,2.0,91,0.00,-SN,,0.00,WeatherDisplay:10.37,2013-03-19 06:40:00,
2013-03-19 07:50:00,30.7,28.4,29.38,WNW,293,0.0,4.0,91,0.00,OVC,,0.00,WeatherDisplay:10.37,2013-03-19 06:50:00,
2013-03-19 08:00:00,30.9,28.3,29.38,NW,312,2.0,3.0,90,0.00,OVC,,0.00,WeatherDisplay:10.37,2013-03-19 07:00:00,
2013-03-19 08:10:00,30.9,28.1,29.38,NW,305,2.0,3.0,89,0.00,OVC,,0.00,WeatherDisplay:10.37,2013-03-19 07:10:00,
2013-03-19 08:20:00,31.1,28.2,29.39,WNW,292,1.0,2.0,89,0.00,-SN,,0.00,WeatherDisplay:10.37,2013-03-19 07:20:00,
2013-03-19 08:40:00,31.3,27.9,29.40,WNW,303,2.0,2.0,87,0.00,-SN,,0.00,WeatherDisplay:10.37,2013-03-19 07:40:00,
2013-03-19 09:00:00,31.8,27.8,29.41,NW,312,3.0,4.0,85,0.00,-SN,,0.00,WeatherDisplay:10.37,2013-03-19 08:00:00,
2013-03-19 09:10:00,32.0,28.0,29.41,WNW,294,2.0,3.0,85,0.00,-SN,,0.00,WeatherDisplay:10.37,2013-03-19 08:10:00,
2013-03-19 09:20:00,32.4,28.1,29.42,NW,314,0.0,2.0,84,0.00,-SN,,0.00,WeatherDisplay:10.37,2013-03-19 08:20:00,
2013-03-19 09:50:00,33.4,28.2,29.42,NW,308,2.0,5.0,81,0.00,-SN,,0.00,WeatherDisplay:10.37,2013-03-19 08:50:00,
2013-03-19 10:00:00,33.4,27.9,29.43,WNW,303,3.0,4.0,80,0.00,-SN,,0.00,WeatherDisplay:10.37,2013-03-19 09:00:00,
2013-03-19 10:11:00,33.4,27.0,29.43,WNW,303,1.0,4.0,77,0.00,-SN,,0.00,WeatherDisplay:10.37,2013-03-19 09:11:00,
2013-03-19 10:20:00,33.3,27.5,29.44,NW,307,1.0,2.0,79,0.00,BKN,,0.00,WeatherDisplay:10.37,2013-03-19 09:20:00,
2013-03-19 10:30:00,33.4,27.3,29.44,NW,316,1.0,2.0,78,0.00,BKN,,0.00,WeatherDisplay:10.37,2013-03-19 09:30:00,
2013-03-19 10:40:00,33.6,27.5,29.44,NW,315,5.0,5.0,78,0.00,BKN,,0.00,WeatherDisplay:10.37,2013-03-19 09:40:00,
2013-03-19 10:50:00,34.0,27.5,29.45,NW,311,3.0,5.0,77,0.00,BKN,,0.00,WeatherDisplay:10.37,2013-03-19 09:50:00,
2013-03-19 11:00:00,34.0,27.5,29.46,NW,310,1.0,4.0,77,0.00,BKN,,0.00,WeatherDisplay:10.37,2013-03-19 10:00:00,
2013-03-19 11:10:00,34.2,27.7,29.46,WNW,292,3.0,4.0,77,0.00,BKN,,0.00,WeatherDisplay:10.37,2013-03-19 10:10:00,
2013-03-19 11:20:00,34.7,28.2,29.46,WNW,292,0.0,3.0,77,0.00,OVC,,0.00,WeatherDisplay:10.37,2013-03-19 10:20:00,
2013-03-19 11:30:00,35.2,29.1,29.46,WNW,296,0.0,2.0,78,0.00,OVC,,0.00,WeatherDisplay:10.37,2013-03-19 10:30:00,
2013-03-19 11:51:00,37.0,30.5,29.47,WNW,292,2.0,4.0,77,0.00,BKN,,0.00,WeatherDisplay:10.37,2013-03-19 10:51:00,
2013-03-19 12:00:00,37.8,31.2,29.47,WNW,295,0.0,2.0,77,0.00,BKN,,0.00,WeatherDisplay:10.37,2013-03-19 11:00:00,
2013-03-19 12:10:00,37.9,31.7,29.48,NNW,329,1.0,1.0,78,0.00,BKN,,0.00,WeatherDisplay:10.37,2013-03-19 11:10:00,
2013-03-19 12:20:00,37.8,31.5,29.48,WNW,296,1.0,1.0,78,0.00,BKN,,0.00,WeatherDisplay:10.37,2013-03-19 11:20:00,
2013-03-19 12:30:00,37.6,31.0,29.48,WNW,303,0.0,1.0,77,0.00,BKN,,0.00,WeatherDisplay:10.37,2013-03-19 11:30:00,
2013-03-19 12:40:00,37.8,31.5,29.49,NW,315,0.0,0.0,78,0.04,RA,,0.04,WeatherDisplay:10.37,2013-03-19 11:40:00,
2013-03-19 12:50:00,37.8,31.5,29.49,WNW,294,0.0,0.0,78,0.02,RA,,0.06,WeatherDisplay:10.37,2013-03-19 11:50:00,
2013-03-19 13:01:00,37.2,31.0,29.49,NNE,33,0.0,0.0,78,0.00,RA,,0.06,WeatherDisplay:10.37,2013-03-19 12:01:00,
2013-03-19 13:10:00,37.0,30.8,29.50,SSW,202,0.0,0.0,78,0.02,RA,,0.08,WeatherDisplay:10.37,2013-03-19 12:10:00,
2013-03-19 13:20:00,36.7,30.8,29.50,NW,326,0.0,1.0,79,0.00,RA,,0.08,WeatherDisplay:10.37,2013-03-19 12:20:00,
2013-03-19 13:30:00,36.3,30.7,29.50,West,276,0.0,0.0,80,0.00,OVC,,0.08,WeatherDisplay:10.37,2013-03-19 12:30:00,
2013-03-19 13:40:00,36.7,31.1,29.50,WNW,292,0.0,0.0,80,0.00,OVC,,0.08,WeatherDisplay:10.37,2013-03-19 12:40:00,
2013-03-19 13:51:00,37.0,31.4,29.50,WSW,257,0.0,0.0,80,0.00,OVC,,0.08,WeatherDisplay:10.37,2013-03-19 12:51:00,
2013-03-19 14:01:00,37.4,32.1,29.50,WSW,242,0.0,0.0,81,0.00,OVC,,0.08,WeatherDisplay:10.37,2013-03-19 13:01:00,
2013-03-19 14:10:00,37.6,32.0,29.51,SW,236,0.0,0.0,80,0.00,OVC,,0.08,WeatherDisplay:10.37,2013-03-19 13:10:00,
2013-03-19 14:31:00,37.4,32.1,29.51,West,270,0.0,0.0,81,0.00,OVC,,0.08,WeatherDisplay:10.37,2013-03-19 13:31:00,
2013-03-19 14:40:00,37.2,31.6,29.51,West,268,0.0,0.0,80,0.02,RA,,0.10,WeatherDisplay:10.37,2013-03-19 13:40:00,
2013-03-19 14:51:00,37.2,31.6,29.51,WSW,244,0.0,0.0,80,0.00,RA,,0.10,WeatherDisplay:10.37,2013-03-19 13:51:00,
2013-03-19 15:00:00,37.6,32.0,29.51,SW,225,0.0,0.0,80,0.00,OVC,,0.10,WeatherDisplay:10.37,2013-03-19 14:00:00,
2013-03-19 15:10:00,37.9,32.3,29.51,West,281,0.0,0.0,80,0.02,RA,,0.12,WeatherDisplay:10.37,2013-03-19 14:10:00,
2013-03-19 15:20:00,38.5,32.8,29.52,WNW,292,0.0,0.0,80,0.00,RA,,0.12,WeatherDisplay:10.37,2013-03-19 14:20:00,
2013-03-19 15:30:00,39.4,33.4,29.52,ESE,112,0.0,0.0,79,0.02,RA,,0.14,WeatherDisplay:10.37,2013-03-19 14:30:00,
2013-03-19 15:40:00,40.1,33.1,29.52,ESE,123,0.0,0.0,76,0.02,RA,,0.16,WeatherDisplay:10.37,2013-03-19 14:40:00,
2013-03-19 16:00:00,39.9,33.3,29.52,WNW,287,0.0,0.0,77,0.00,BKN,,0.16,WeatherDisplay:10.37,2013-03-19 15:00:00,
2013-03-19 16:10:00,39.4,32.8,29.52,SW,224,0.0,0.0,77,0.00,BKN,,0.16,WeatherDisplay:10.37,2013-03-19 15:10:00,
2013-03-19 16:20:00,38.8,32.9,29.52,SE,138,0.0,0.0,79,0.02,RA,,0.18,WeatherDisplay:10.37,2013-03-19 15:20:00,
2013-03-19 16:30:00,38.5,32.5,29.52,South,190,0.0,0.0,79,0.00,FEW,,0.18,WeatherDisplay:10.37,2013-03-19 15:30:00,
2013-03-19 16:40:00,38.5,32.5,29.52,South,185,0.0,0.0,79,0.00,FEW,,0.18,WeatherDisplay:10.37,2013-03-19 15:40:00,
2013-03-19 17:00:00,37.8,32.5,29.53,WSW,242,0.0,1.0,81,0.00,FEW,,0.18,WeatherDisplay:10.37,2013-03-19 16:00:00,
2013-03-19 17:11:00,37.8,32.5,29.53,West,270,0.0,0.0,81,0.00,FEW,,0.18,WeatherDisplay:10.37,2013-03-19 16:11:00,
2013-03-19 17:20:00,37.6,32.3,29.54,WNW,292,0.0,1.0,81,0.00,BKN,,0.18,WeatherDisplay:10.37,2013-03-19 16:20:00,
2013-03-19 17:40:00,37.2,31.9,29.54,WNW,292,0.0,0.0,81,0.00,BKN,,0.18,WeatherDisplay:10.37,2013-03-19 16:40:00,
2013-03-19 17:50:00,37.0,31.8,29.54,WNW,298,0.0,0.0,81,0.00,BKN,,0.18,WeatherDisplay:10.37,2013-03-19 16:50:00,
2013-03-19 18:00:00,36.9,31.6,29.54,NNW,333,0.0,0.0,81,0.00,BKN,,0.18,WeatherDisplay:10.37,2013-03-19 17:00:00,
2013-03-19 18:10:00,36.7,31.4,29.55,NW,315,0.0,0.0,81,0.00,BKN,,0.18,WeatherDisplay:10.37,2013-03-19 17:10:00,
2013-03-19 18:20:00,36.3,31.4,29.55,NW,313,0.0,0.0,82,0.00,BKN,,0.18,WeatherDisplay:10.37,2013-03-19 17:20:00,
2013-03-19 18:30:00,36.1,31.2,29.56,WNW,292,0.0,0.0,82,0.00,SCT,,0.18,WeatherDisplay:10.37,2013-03-19 17:30:00,
2013-03-19 18:41:00,36.0,31.0,29.55,WNW,292,0.0,0.0,82,0.00,SCT,,0.18,WeatherDisplay:10.37,2013-03-19 17:41:00,
2013-03-19 18:50:00,35.4,30.8,29.56,WNW,292,0.0,0.0,83,0.00,SCT,,0.18,WeatherDisplay:10.37,2013-03-19 17:50:00,
2013-03-19 19:00:00,35.2,30.6,29.56,WNW,292,0.0,0.0,83,0.00,FEW,,0.18,WeatherDisplay:10.37,2013-03-19 18:00:00,
2013-03-19 19:10:00,35.2,30.9,29.57,WNW,292,0.0,0.0,84,0.00,FEW,,0.18,WeatherDisplay:10.37,2013-03-19 18:10:00,
2013-03-19 19:21:00,35.2,30.9,29.57,WNW,292,0.0,0.0,84,0.00,FEW,,0.18,WeatherDisplay:10.37,2013-03-19 18:21:00,
2013-03-19 19:31:00,35.2,30.9,29.57,WNW,292,0.0,0.0,84,0.00,FEW,,0.18,WeatherDisplay:10.37,2013-03-19 18:31:00,
2013-03-19 19:40:00,35.2,31.2,29.57,WNW,292,0.0,0.0,85,0.00,FEW,,0.18,WeatherDisplay:10.37,2013-03-19 18:40:00,
2013-03-19 19:50:00,35.2,31.2,29.57,WNW,292,0.0,0.0,85,0.00,BKN,,0.18,WeatherDisplay:10.37,2013-03-19 18:50:00,
2013-03-19 20:00:00,35.2,31.2,29.57,WNW,292,0.0,0.0,85,0.00,SCT,,0.18,WeatherDisplay:10.37,2013-03-19 19:00:00,
2013-03-19 20:10:00,35.1,31.0,29.57,WNW,292,0.0,0.0,85,0.00,SCT,,0.18,WeatherDisplay:10.37,2013-03-19 19:10:00,
2013-03-19 20:20:00,34.9,30.8,29.58,West,281,0.0,0.0,85,0.00,SCT,,0.18,WeatherDisplay:10.37,2013-03-19 19:20:00,
2013-03-19 20:30:00,34.7,30.7,29.58,West,270,0.0,0.0,85,0.00,CLR,,0.18,WeatherDisplay:10.37,2013-03-19 19:30:00,
2013-03-19 20:40:00,34.5,30.8,29.57,West,267,0.0,0.0,86,0.00,CLR,,0.18,WeatherDisplay:10.37,2013-03-19 19:40:00,
2013-03-19 20:50:00,34.3,30.6,29.58,ESE,112,0.0,0.0,86,0.00,CLR,,0.18,WeatherDisplay:10.37,2013-03-19 19:50:00,
2013-03-19 21:00:00,34.2,30.4,29.58,ESE,112,0.0,0.0,86,0.00,CLR,,0.18,WeatherDisplay:10.37,2013-03-19 20:00:00,
2013-03-19 21:10:00,34.0,30.5,29.58,ESE,112,0.0,0.0,87,0.00,CLR,,0.18,WeatherDisplay:10.37,2013-03-19 20:10:00,
2013-03-19 21:20:00,33.4,30.0,29.58,ESE,112,0.0,0.0,87,0.00,CLR,,0.18,WeatherDisplay:10.37,2013-03-19 20:20:00,
2013-03-19 21:30:00,33.1,29.6,29.58,ESE,112,0.0,0.0,87,0.00,CLR,,0.18,WeatherDisplay:10.37,2013-03-19 20:30:00,
2013-03-19 21:40:00,32.5,29.1,29.59,ESE,112,0.0,0.0,87,0.00,CLR,,0.18,WeatherDisplay:10.37,2013-03-19 20:40:00,
2013-03-19 21:50:00,32.4,28.9,29.59,ESE,112,0.0,0.0,87,0.00,CLR,,0.18,WeatherDisplay:10.37,2013-03-19 20:50:00,
2013-03-19 22:00:00,32.4,28.9,29.59,ESE,112,0.0,0.0,87,0.00,CLR,,0.18,WeatherDisplay:10.37,2013-03-19 21:00:00,
2013-03-19 22:10:00,33.4,30.3,29.59,WNW,292,0.0,0.0,88,0.00,CLR,,0.18,WeatherDisplay:10.37,2013-03-19 21:10:00,
2013-03-19 22:20:00,34.5,31.6,29.59,WNW,292,1.0,2.0,89,0.00,CLR,,0.18,WeatherDisplay:10.37,2013-03-19 21:20:00,
2013-03-19 22:30:00,35.4,32.8,29.59,WNW,302,2.0,2.0,90,0.00,CLR,,0.18,WeatherDisplay:10.37,2013-03-19 21:30:00,
2013-03-19 22:40:00,36.1,33.5,29.59,WNW,292,3.0,4.0,90,0.00,CLR,,0.18,WeatherDisplay:10.37,2013-03-19 21:40:00,
2013-03-19 22:50:00,36.5,33.6,29.59,WNW,292,2.0,3.0,89,0.00,CLR,,0.18,WeatherDisplay:10.37,2013-03-19 21:50:00,
2013-03-19 23:00:00,36.7,33.5,29.60,WNW,292,1.0,2.0,88,0.00,CLR,,0.18,WeatherDisplay:10.37,2013-03-19 22:00:00,
2013-03-19 23:10:00,36.5,33.3,29.60,WNW,297,3.0,4.0,88,0.00,CLR,,0.18,WeatherDisplay:10.37,2013-03-19 22:10:00,
2013-03-19 23:20:00,36.5,33.0,29.60,NW,315,5.0,5.0,87,0.00,CLR,,0.18,WeatherDisplay:10.37,2013-03-19 22:20:00,
2013-03-19 23:30:00,36.7,33.2,29.60,NW,307,2.0,5.0,87,0.00,CLR,,0.18,WeatherDisplay:10.37,2013-03-19 22:30:00,
2013-03-19 23:40:00,36.7,32.9,29.60,WNW,303,3.0,3.0,86,0.00,CLR,,0.18,WeatherDisplay:10.37,2013-03-19 22:40:00,
2013-03-19 23:50:00,36.9,33.1,29.60,NW,315,1.0,3.0,86,0.00,CLR,,0.18,WeatherDisplay:10.37,2013-03-19 22:50:00,